createdAt,value
2023-01-12T00:00:01.472Z,8.80
2023-01-12T00:02:34.867Z,8.70
2023-01-12T00:05:07.736Z,8.80
2023-01-12T00:07:34.726Z,8.80
2023-01-12T00:10:07.791Z,8.80
2023-01-12T00:12:34.633Z,8.80
2023-01-12T00:15:01.370Z,8.80
2023-01-12T00:17:34.802Z,8.80
2023-01-12T00:20:01.576Z,8.80
2023-01-12T00:22:34.811Z,8.80
2023-01-12T00:25:01.480Z,8.80
2023-01-12T00:27:28.196Z,8.80
2023-01-12T00:30:01.838Z,8.80
2023-01-12T00:32:28.570Z,8.90
2023-01-12T00:35:06.845Z,8.90
2023-01-12T00:37:40.790Z,8.90
2023-01-12T00:40:16.850Z,8.90
2023-01-12T00:43:08.854Z,8.90
2023-01-12T00:45:35.547Z,8.90
2023-01-12T00:48:08.818Z,8.90
2023-01-12T00:50:35.466Z,8.90
2023-01-12T00:53:08.819Z,8.90
2023-01-12T00:55:35.471Z,8.90
2023-01-12T00:58:09.859Z,8.80
2023-01-12T01:00:42.841Z,8.80
2023-01-12T01:03:15.871Z,8.80
2023-01-12T01:05:42.583Z,8.80
2023-01-12T01:08:15.818Z,8.70
2023-01-12T01:10:48.848Z,8.70
2023-01-12T01:13:21.897Z,8.70
2023-01-12T01:15:54.874Z,8.70
2023-01-12T01:18:27.856Z,8.70
2023-01-12T01:21:00.867Z,8.70
2023-01-12T01:23:28.299Z,8.60
2023-01-12T01:26:01.859Z,8.60
2023-01-12T01:28:28.568Z,8.60
2023-01-12T01:31:08.935Z,8.60
2023-01-12T01:33:35.723Z,8.60
2023-01-12T01:36:08.923Z,8.70
2023-01-12T01:38:35.841Z,8.70
2023-01-12T01:41:02.861Z,8.70
2023-01-12T01:43:36.925Z,8.70
2023-01-12T01:46:09.429Z,8.70
2023-01-12T01:48:43.917Z,8.70
2023-01-12T01:51:13.717Z,8.70
2023-01-12T01:53:41.628Z,8.70
2023-01-12T01:56:17.919Z,8.80
2023-01-12T01:58:48.132Z,8.80
2023-01-12T02:01:21.024Z,8.80
2023-01-12T02:03:54.981Z,8.80
2023-01-12T02:06:30.910Z,8.80
2023-01-12T02:09:04.920Z,8.80
2023-01-12T02:11:50.197Z,8.80
2023-01-12T02:14:41.988Z,8.80
2023-01-12T02:17:19.968Z,8.70
2023-01-12T02:19:50.119Z,8.70
2023-01-12T02:22:41.954Z,8.70
2023-01-12T02:25:27.339Z,8.70
2023-01-12T02:28:03.967Z,8.60
2023-01-12T02:30:49.384Z,8.60
2023-01-12T02:33:42.984Z,8.60
2023-01-12T02:36:28.922Z,8.60
2023-01-12T02:39:06.981Z,8.60
2023-01-12T02:42:04.974Z,8.60
2023-01-12T02:45:06.990Z,8.60
2023-01-12T02:47:51.061Z,8.60
2023-01-12T02:50:27.001Z,8.60
2023-01-12T02:53:02.986Z,8.60
2023-01-12T02:55:37.047Z,8.60
2023-01-12T02:58:13.027Z,8.60
2023-01-12T03:00:40.623Z,8.70
2023-01-12T03:03:16.050Z,8.70
2023-01-12T03:05:43.128Z,8.70
2023-01-12T03:08:22.035Z,8.70
2023-01-12T03:10:57.499Z,8.70
2023-01-12T03:13:36.104Z,8.70
2023-01-12T03:16:04.221Z,8.70
2023-01-12T03:18:47.089Z,8.70
2023-01-12T03:21:36.070Z,8.70
2023-01-12T03:24:16.030Z,8.60
2023-01-12T03:26:56.122Z,8.60
2023-01-12T03:29:29.720Z,8.60
2023-01-12T03:32:04.093Z,8.60
2023-01-12T03:34:38.153Z,8.50
2023-01-12T03:37:19.046Z,8.50
2023-01-12T03:39:51.066Z,8.50
2023-01-12T03:42:27.083Z,8.50
2023-01-12T03:45:15.302Z,8.50
2023-01-12T03:47:50.085Z,8.50
2023-01-12T03:50:18.928Z,8.50
2023-01-12T03:52:52.131Z,8.50
2023-01-12T03:55:20.964Z,8.40
2023-01-12T03:57:54.137Z,8.40
2023-01-12T04:00:21.521Z,8.40
2023-01-12T04:02:49.008Z,8.40
2023-01-12T04:05:22.199Z,8.40
2023-01-12T04:07:48.965Z,8.40
2023-01-12T04:10:15.711Z,8.40
2023-01-12T04:12:54.210Z,8.40
2023-01-12T04:15:21.047Z,8.40
2023-01-12T04:17:47.758Z,8.40
2023-01-12T04:20:21.107Z,8.40
2023-01-12T04:22:52.936Z,8.40
2023-01-12T04:25:27.198Z,8.40
2023-01-12T04:28:02.520Z,8.40
2023-01-12T04:30:37.167Z,8.40
2023-01-12T04:33:16.176Z,8.40
2023-01-12T04:35:42.902Z,8.40
2023-01-12T04:38:09.716Z,8.40
2023-01-12T04:40:50.181Z,8.40
2023-01-12T04:43:16.835Z,8.40
2023-01-12T04:45:50.332Z,8.40
2023-01-12T04:48:19.352Z,8.40
2023-01-12T04:50:52.171Z,8.40
2023-01-12T04:53:21.758Z,8.40
2023-01-12T04:55:56.220Z,8.40
2023-01-12T04:58:23.350Z,8.50
2023-01-12T05:00:56.309Z,8.50
2023-01-12T05:03:23.341Z,8.50
2023-01-12T05:06:03.200Z,8.50
2023-01-12T05:08:55.230Z,8.60
2023-01-12T05:11:25.443Z,8.50
2023-01-12T05:13:58.250Z,8.50
2023-01-12T05:16:33.355Z,8.50
2023-01-12T05:19:06.267Z,8.60
2023-01-12T05:21:32.935Z,8.60
2023-01-12T05:24:06.247Z,8.60
2023-01-12T05:26:32.927Z,8.60
2023-01-12T05:28:59.565Z,8.60
2023-01-12T05:31:33.234Z,8.60
2023-01-12T05:33:59.964Z,8.60
2023-01-12T05:36:26.735Z,8.60
2023-01-12T05:39:00.557Z,8.70
2023-01-12T05:41:37.409Z,8.70
2023-01-12T05:44:17.305Z,8.70
2023-01-12T05:46:44.146Z,8.70
2023-01-12T05:49:17.298Z,8.70
2023-01-12T05:51:44.140Z,8.70
2023-01-12T05:54:17.365Z,8.70
2023-01-12T05:56:44.365Z,8.70
2023-01-12T05:59:18.367Z,8.80
2023-01-12T06:01:45.044Z,8.80
2023-01-12T06:04:18.356Z,8.70
2023-01-12T06:06:46.440Z,8.80
2023-01-12T06:09:13.182Z,8.80
2023-01-12T06:12:05.682Z,8.80
2023-01-12T06:14:32.660Z,8.80
2023-01-12T06:17:06.355Z,8.80
2023-01-12T06:19:39.316Z,8.80
2023-01-12T06:22:16.376Z,8.80
2023-01-12T06:24:43.139Z,8.90
2023-01-12T06:27:16.318Z,8.90
2023-01-12T06:29:43.156Z,8.90
2023-01-12T06:32:09.813Z,8.90
2023-01-12T06:34:43.325Z,8.90
2023-01-12T06:37:12.000Z,9.00
2023-01-12T06:39:45.377Z,9.00
2023-01-12T06:42:44.560Z,9.10
2023-01-12T06:45:18.401Z,9.10
2023-01-12T06:47:56.456Z,9.10
2023-01-12T06:50:23.161Z,9.20
2023-01-12T06:52:56.398Z,9.10
2023-01-12T06:55:23.266Z,9.20
2023-01-12T06:57:49.969Z,9.20
2023-01-12T07:00:28.408Z,9.30
2023-01-12T07:02:59.944Z,9.40
2023-01-12T07:05:26.676Z,9.50
2023-01-12T07:08:09.669Z,9.50
2023-01-12T07:10:43.442Z,9.50
2023-01-12T07:13:10.270Z,9.50
2023-01-12T07:15:43.428Z,9.50
2023-01-12T07:18:10.087Z,9.60
2023-01-12T07:20:43.429Z,9.60
2023-01-12T07:23:10.119Z,9.60
2023-01-12T07:25:36.907Z,9.70
2023-01-12T07:28:10.421Z,9.70
2023-01-12T07:30:43.559Z,9.70
2023-01-12T07:33:18.779Z,9.80
2023-01-12T07:35:52.514Z,9.80
2023-01-12T07:38:19.164Z,9.90
2023-01-12T07:40:52.486Z,10.00
2023-01-12T07:43:25.494Z,10.00
2023-01-12T07:45:52.286Z,10.10
2023-01-12T07:48:33.490Z,10.10
2023-01-12T07:51:00.158Z,10.10
2023-01-12T07:53:33.533Z,10.10
2023-01-12T07:56:00.470Z,10.10
2023-01-12T07:58:34.464Z,10.10
2023-01-12T08:01:07.537Z,10.10
2023-01-12T08:03:34.298Z,10.20
2023-01-12T08:06:07.504Z,10.20
2023-01-12T08:08:34.357Z,10.20
2023-01-12T08:11:12.530Z,10.20
2023-01-12T08:13:40.663Z,10.30
2023-01-12T08:16:25.615Z,10.30
2023-01-12T08:18:55.344Z,10.30
2023-01-12T08:21:23.827Z,10.30
2023-01-12T08:23:59.543Z,10.30
2023-01-12T08:26:35.585Z,10.30
2023-01-12T08:29:08.179Z,10.30
2023-01-12T08:31:42.579Z,10.30
2023-01-12T08:34:09.965Z,10.40
2023-01-12T08:36:44.763Z,10.30
2023-01-12T08:39:18.547Z,10.30
2023-01-12T08:41:45.323Z,10.40
2023-01-12T08:44:18.571Z,10.40
2023-01-12T08:46:52.758Z,10.40
2023-01-12T08:49:27.570Z,10.40
2023-01-12T08:51:54.900Z,10.40
2023-01-12T08:54:22.189Z,10.40
2023-01-12T08:56:55.591Z,10.50
2023-01-12T08:59:22.369Z,10.40
2023-01-12T09:01:49.193Z,10.50
2023-01-12T09:04:22.604Z,10.50
2023-01-12T09:06:55.618Z,10.50
2023-01-12T09:09:28.632Z,10.50
2023-01-12T09:11:55.565Z,10.60
2023-01-12T09:14:28.615Z,10.60
2023-01-12T09:16:57.091Z,10.50
2023-01-12T09:19:24.100Z,10.50
2023-01-12T09:21:57.616Z,10.50
2023-01-12T09:24:24.242Z,10.50
2023-01-12T09:26:50.934Z,10.60
2023-01-12T09:29:24.664Z,10.60
2023-01-12T09:31:51.481Z,10.60
2023-01-12T09:34:18.395Z,10.60
2023-01-12T09:36:51.695Z,10.60
2023-01-12T09:39:28.558Z,10.60
2023-01-12T09:42:14.729Z,10.70
2023-01-12T09:45:07.676Z,10.70
2023-01-12T09:47:39.683Z,10.70
2023-01-12T09:50:20.875Z,10.70
2023-01-12T09:53:04.686Z,10.70
2023-01-12T09:55:41.209Z,10.80
2023-01-12T09:58:23.695Z,10.80
2023-01-12T10:00:51.902Z,10.80
2023-01-12T10:03:38.988Z,10.90
2023-01-12T10:06:06.836Z,10.90
2023-01-12T10:08:45.719Z,10.90
2023-01-12T10:11:25.048Z,10.90
2023-01-12T10:14:16.720Z,10.90
2023-01-12T10:17:08.745Z,10.90
2023-01-12T10:20:00.686Z,10.90
2023-01-12T10:22:45.799Z,10.90
2023-01-12T10:25:15.799Z,10.80
2023-01-12T10:27:44.304Z,10.80
2023-01-12T10:30:19.787Z,10.80
2023-01-12T10:32:53.758Z,10.70
2023-01-12T10:35:22.087Z,10.70
2023-01-12T10:38:02.772Z,10.70
2023-01-12T10:40:37.822Z,10.70
2023-01-12T10:43:20.394Z,10.70
2023-01-12T10:46:17.828Z,10.70
2023-01-12T10:48:56.329Z,10.70
2023-01-12T10:51:33.774Z,10.70
2023-01-12T10:54:02.216Z,10.70
2023-01-12T10:56:45.806Z,10.70
2023-01-12T10:59:12.715Z,10.70
2023-01-12T11:01:48.900Z,10.70
2023-01-12T11:04:25.776Z,10.70
2023-01-12T11:07:05.329Z,10.70
2023-01-12T11:09:38.816Z,10.70
2023-01-12T11:12:30.021Z,10.70
2023-01-12T11:15:24.836Z,10.70
2023-01-12T11:18:24.039Z,10.70
2023-01-12T11:20:59.787Z,10.70
2023-01-12T11:23:38.820Z,10.70
2023-01-12T11:26:13.357Z,10.70
2023-01-12T11:28:49.873Z,10.70
2023-01-12T11:31:19.785Z,10.70
2023-01-12T11:34:08.874Z,10.70
2023-01-12T11:36:42.830Z,10.60
2023-01-12T11:39:20.870Z,10.60
2023-01-12T11:42:18.004Z,10.70
2023-01-12T11:44:51.179Z,10.70
2023-01-12T11:47:27.927Z,10.70
2023-01-12T11:50:13.795Z,10.70
2023-01-12T11:52:46.886Z,10.70
2023-01-12T11:55:21.897Z,10.70
2023-01-12T11:58:00.870Z,10.70
2023-01-12T12:00:38.900Z,10.70
2023-01-12T12:03:25.596Z,10.70
2023-01-12T12:06:01.875Z,10.70
2023-01-12T12:08:53.898Z,10.70
2023-01-12T12:11:29.606Z,10.70
2023-01-12T12:14:20.896Z,10.70
2023-01-12T12:17:03.391Z,10.70
2023-01-12T12:19:36.874Z,10.60
2023-01-12T12:22:03.613Z,10.60
2023-01-12T12:24:43.890Z,10.70
2023-01-12T12:27:19.956Z,10.70
2023-01-12T12:29:59.893Z,10.60
2023-01-12T12:32:45.952Z,10.70
2023-01-12T12:35:27.968Z,10.70
2023-01-12T12:38:26.962Z,10.70
2023-01-12T12:41:28.016Z,10.60
2023-01-12T12:44:39.045Z,10.70
2023-01-12T12:47:30.996Z,10.60
2023-01-12T12:49:58.759Z,10.70
2023-01-12T12:52:29.608Z,10.60
2023-01-12T12:55:05.053Z,10.60
2023-01-12T12:58:02.080Z,10.60
2023-01-12T13:00:40.446Z,10.60
2023-01-12T13:03:15.995Z,10.60
2023-01-12T13:05:53.527Z,10.60
2023-01-12T13:08:22.383Z,10.60
2023-01-12T13:10:57.975Z,10.60
2023-01-12T13:13:39.023Z,10.60
2023-01-12T13:16:11.767Z,10.60
2023-01-12T13:19:04.076Z,10.50
2023-01-12T13:21:49.093Z,10.50
2023-01-12T13:24:23.213Z,10.50
2023-01-12T13:26:52.644Z,10.50
2023-01-12T13:29:35.025Z,10.50
2023-01-12T13:32:20.875Z,10.50
2023-01-12T13:34:54.093Z,10.50
2023-01-12T13:37:26.691Z,10.50
2023-01-12T13:40:15.018Z,10.50
2023-01-12T13:43:02.489Z,10.50
2023-01-12T13:45:37.109Z,10.50
2023-01-12T13:48:07.569Z,10.50
2023-01-12T13:50:35.757Z,10.50
2023-01-12T13:53:10.195Z,10.50
2023-01-12T13:55:37.193Z,10.40
2023-01-12T13:58:13.210Z,10.40
2023-01-12T14:00:40.003Z,10.40
2023-01-12T14:03:12.541Z,10.40
2023-01-12T14:05:58.128Z,10.40
2023-01-12T14:08:51.885Z,10.40
2023-01-12T14:11:31.100Z,10.40
2023-01-12T14:14:20.756Z,10.40
2023-01-12T14:17:12.127Z,10.40
2023-01-12T14:19:40.015Z,10.40
2023-01-12T14:22:23.174Z,10.40
2023-01-12T14:24:49.991Z,10.40
2023-01-12T14:27:28.517Z,10.40
2023-01-12T14:29:55.381Z,10.30
2023-01-12T14:32:23.436Z,10.30
2023-01-12T14:35:03.126Z,10.30
2023-01-12T14:37:33.039Z,10.30
2023-01-12T14:40:06.158Z,10.40
2023-01-12T14:42:58.194Z,10.30
2023-01-12T14:45:51.186Z,10.30
2023-01-12T14:48:28.901Z,10.30
2023-01-12T14:51:21.243Z,10.30
2023-01-12T14:53:55.188Z,10.30
2023-01-12T14:56:30.317Z,10.40
2023-01-12T14:59:05.414Z,10.30
2023-01-12T15:01:40.235Z,10.30
2023-01-12T15:04:15.463Z,10.30
2023-01-12T15:06:43.041Z,10.30
2023-01-12T15:09:31.231Z,10.30
2023-01-12T15:11:57.989Z,10.30
2023-01-12T15:14:33.472Z,10.30
2023-01-12T15:17:18.787Z,10.30
2023-01-12T15:20:10.222Z,10.30
2023-01-12T15:22:55.695Z,10.30
2023-01-12T15:25:44.188Z,10.30
2023-01-12T15:28:11.403Z,10.30
2023-01-12T15:30:38.745Z,10.30
2023-01-12T15:33:12.262Z,10.30
2023-01-12T15:35:42.819Z,10.30
2023-01-12T15:38:20.262Z,10.30
2023-01-12T15:40:47.957Z,10.30
2023-01-12T15:43:15.536Z,10.30
2023-01-12T15:45:50.412Z,10.30
2023-01-12T15:48:17.210Z,10.30
2023-01-12T15:50:45.074Z,10.20
2023-01-12T15:53:27.232Z,10.30
2023-01-12T15:56:00.420Z,10.20
2023-01-12T15:58:27.188Z,10.20
2023-01-12T16:01:00.592Z,10.20
2023-01-12T16:03:57.251Z,10.20
2023-01-12T16:06:20.275Z,10.30
2023-01-12T16:08:47.430Z,10.20
2023-01-12T16:11:17.863Z,10.30
2023-01-12T16:13:51.313Z,10.30
2023-01-12T16:16:25.355Z,10.20
2023-01-12T16:18:52.517Z,10.20
2023-01-12T16:21:29.289Z,10.20
2023-01-12T16:23:57.863Z,10.20
2023-01-12T16:26:32.315Z,10.20
2023-01-12T16:29:05.297Z,10.20
2023-01-12T16:31:39.440Z,10.20
2023-01-12T16:34:06.550Z,10.20
2023-01-12T16:36:33.709Z,10.20
2023-01-12T16:39:07.334Z,10.20
2023-01-12T16:41:34.046Z,10.20
2023-01-12T16:44:07.297Z,10.20
2023-01-12T16:46:34.067Z,10.20
2023-01-12T16:49:10.353Z,10.20
2023-01-12T16:51:37.112Z,10.20
2023-01-12T16:54:04.798Z,10.30
2023-01-12T16:56:38.350Z,10.20
2023-01-12T16:59:05.072Z,10.20
2023-01-12T17:01:38.422Z,10.20
2023-01-12T17:04:10.793Z,10.20
2023-01-12T17:06:46.336Z,10.20
2023-01-12T17:09:14.023Z,10.20
2023-01-12T17:11:43.691Z,10.20
2023-01-12T17:14:30.379Z,10.20
2023-01-12T17:17:03.237Z,10.20
2023-01-12T17:19:38.433Z,10.20
2023-01-12T17:22:24.343Z,10.20
2023-01-12T17:24:58.405Z,10.30
2023-01-12T17:27:32.382Z,10.30
2023-01-12T17:30:02.799Z,10.20
2023-01-12T17:32:29.559Z,10.30
2023-01-12T17:35:02.462Z,10.30
2023-01-12T17:37:29.239Z,10.30
2023-01-12T17:40:02.438Z,10.30
2023-01-12T17:42:49.281Z,10.30
2023-01-12T17:45:22.459Z,10.20
2023-01-12T17:47:49.306Z,10.20
2023-01-12T17:50:23.434Z,10.30
2023-01-12T17:52:50.286Z,10.20
2023-01-12T17:55:23.386Z,10.20
2023-01-12T17:57:56.888Z,10.20
2023-01-12T18:00:30.417Z,10.20
2023-01-12T18:03:08.126Z,10.20
2023-01-12T18:05:44.516Z,10.20
2023-01-12T18:08:29.935Z,10.20
2023-01-12T18:11:03.495Z,10.20
2023-01-12T18:13:30.506Z,10.20
2023-01-12T18:16:03.480Z,10.20
2023-01-12T18:18:36.482Z,10.20
2023-01-12T18:21:10.439Z,10.20
2023-01-12T18:23:44.643Z,10.20
2023-01-12T18:26:19.478Z,10.20
2023-01-12T18:28:46.541Z,10.20
2023-01-12T18:31:21.510Z,10.20
2023-01-12T18:33:56.493Z,10.20
2023-01-12T18:36:30.648Z,10.20
2023-01-12T18:39:04.466Z,10.20
2023-01-12T18:41:56.502Z,10.20
2023-01-12T18:44:32.530Z,10.10
2023-01-12T18:47:21.137Z,10.20
2023-01-12T18:49:55.582Z,10.10
2023-01-12T18:52:40.910Z,10.20
2023-01-12T18:55:14.733Z,10.20
2023-01-12T18:57:41.784Z,10.10
2023-01-12T19:00:21.540Z,10.10
2023-01-12T19:02:54.352Z,10.10
2023-01-12T19:05:32.526Z,10.10
2023-01-12T19:07:59.571Z,10.10
2023-01-12T19:10:33.598Z,10.10
2023-01-12T19:13:25.573Z,10.10
2023-01-12T19:16:17.762Z,10.10
2023-01-12T19:18:47.249Z,10.10
2023-01-12T19:21:39.634Z,10.10
2023-01-12T19:24:31.542Z,10.10
2023-01-12T19:27:23.651Z,10.10
2023-01-12T19:29:50.929Z,10.10
2023-01-12T19:32:24.595Z,10.10
2023-01-12T19:35:09.952Z,10.10
2023-01-12T19:37:37.508Z,10.10
2023-01-12T19:40:19.606Z,10.10
2023-01-12T19:43:12.656Z,10.10
2023-01-12T19:45:40.547Z,10.10
2023-01-12T19:48:07.484Z,10.10
2023-01-12T19:50:41.641Z,10.10
2023-01-12T19:53:11.144Z,10.10
2023-01-12T19:55:46.710Z,10.10
2023-01-12T19:58:13.809Z,10.10
2023-01-12T20:00:44.890Z,10.10
2023-01-12T20:03:25.662Z,10.10
2023-01-12T20:05:59.712Z,10.10
2023-01-12T20:08:26.493Z,10.10
2023-01-12T20:11:03.265Z,10.10
2023-01-12T20:13:38.748Z,10.10
2023-01-12T20:16:10.022Z,10.00
2023-01-12T20:18:37.005Z,10.10
2023-01-12T20:21:14.785Z,10.10
2023-01-12T20:23:43.796Z,10.00
2023-01-12T20:26:18.806Z,10.10
2023-01-12T20:28:51.669Z,10.00
2023-01-12T20:31:20.555Z,10.00
2023-01-12T20:33:53.674Z,10.00
2023-01-12T20:36:26.700Z,10.00
2023-01-12T20:38:59.865Z,10.00
2023-01-12T20:41:26.723Z,10.00
2023-01-12T20:43:59.734Z,10.00
2023-01-12T20:46:28.755Z,10.00
2023-01-12T20:48:55.984Z,10.00
2023-01-12T20:51:29.698Z,9.90
2023-01-12T20:53:58.034Z,9.90
2023-01-12T20:56:32.740Z,9.90
2023-01-12T20:59:06.773Z,9.90
2023-01-12T21:01:33.695Z,9.80
2023-01-12T21:04:07.800Z,9.90
2023-01-12T21:06:34.585Z,9.90
2023-01-12T21:09:07.731Z,9.90
2023-01-12T21:11:41.773Z,9.90
2023-01-12T21:14:08.776Z,9.80
2023-01-12T21:16:41.807Z,9.70
2023-01-12T21:19:08.817Z,9.60
2023-01-12T21:21:41.805Z,9.60
2023-01-12T21:24:09.165Z,9.50
2023-01-12T21:26:42.751Z,9.50
2023-01-12T21:29:12.268Z,9.50
2023-01-12T21:31:45.768Z,9.50
2023-01-12T21:34:12.450Z,9.60
2023-01-12T21:36:45.813Z,9.70
2023-01-12T21:39:18.828Z,9.70
2023-01-12T21:42:04.206Z,9.80
2023-01-12T21:44:37.784Z,9.70
2023-01-12T21:47:10.830Z,9.70
2023-01-12T21:49:37.641Z,9.70
2023-01-12T21:52:16.840Z,9.60
2023-01-12T21:54:43.533Z,9.50
2023-01-12T21:57:10.245Z,9.50
2023-01-12T21:59:43.767Z,9.50
2023-01-12T22:02:11.711Z,9.50
2023-01-12T22:04:44.780Z,9.40
2023-01-12T22:07:15.406Z,9.50
2023-01-12T22:09:48.789Z,9.50
2023-01-12T22:12:15.540Z,9.50
2023-01-12T22:14:48.893Z,9.50
2023-01-12T22:17:15.548Z,9.60
2023-01-12T22:19:48.850Z,9.60
2023-01-12T22:22:21.840Z,9.60
2023-01-12T22:24:51.777Z,9.60
2023-01-12T22:27:26.986Z,9.60
2023-01-12T22:29:59.852Z,9.60
2023-01-12T22:32:27.363Z,9.50
2023-01-12T22:35:07.852Z,9.40
2023-01-12T22:37:47.901Z,9.40
2023-01-12T22:40:15.864Z,9.30
2023-01-12T22:43:07.911Z,9.30
2023-01-12T22:45:43.900Z,9.30
2023-01-12T22:48:16.887Z,9.20
2023-01-12T22:50:43.641Z,9.20
2023-01-12T22:53:10.645Z,9.20
2023-01-12T22:55:48.955Z,9.20
2023-01-12T22:58:21.872Z,9.10
2023-01-12T23:00:54.933Z,9.20
2023-01-12T23:03:22.010Z,9.30
2023-01-12T23:05:57.920Z,9.30
2023-01-12T23:08:31.911Z,9.30
2023-01-12T23:11:03.693Z,9.40
2023-01-12T23:13:36.909Z,9.40
2023-01-12T23:16:10.374Z,9.40
2023-01-12T23:18:44.915Z,9.40
2023-01-12T23:21:14.140Z,9.30
2023-01-12T23:23:48.940Z,9.30
2023-01-12T23:26:17.166Z,9.20
2023-01-12T23:28:54.992Z,9.10
2023-01-12T23:31:23.310Z,9.00
2023-01-12T23:34:04.942Z,8.90
2023-01-12T23:36:31.612Z,8.80
2023-01-12T23:38:59.357Z,8.70
2023-01-12T23:41:33.907Z,8.70
2023-01-12T23:44:01.594Z,8.60
2023-01-12T23:46:35.974Z,8.60
2023-01-12T23:49:02.933Z,8.60
2023-01-12T23:51:36.941Z,8.50
2023-01-12T23:54:03.695Z,8.50
2023-01-12T23:56:37.948Z,8.40
2023-01-12T23:59:10.984Z,8.40
